METAR = EDDE 210220Z 33006KT 9999 BKN008 13/13 Q1001

TAF = TAF TAF EDDE 201700Z 2018/2118 30008KT 9999 SCT025 BKN040 TEMPO 2018/2102 SHRA BKN040CB PROB30 TEMPO 2018/2101 TSRA BKN010 BKN020CB BECMG 2101/2104 35003KT 2500 BR BKN004 TEMPO 2102/2106 0800 FG BKN001 BECMG 2107/2110 33008KT 9999 BKN020 BECMG 2112/2115 30013KT TEMPO 2115/2118 30015G25KT

METAR EDDE Decoded:

STATION........ EDDE
OBSERVED....... Tue May 21, 04:20 MEST
NOW............ Tue May 21, 04:46 MEST
AGE............ 26 min ago
WIND........... NNW at 11 km/h
VISIBILITY..... 16 miles
CLOUDS......... mostly cloudy
TEMP........... 55°F (13°C)
DEWPT.......... 55°F (13°C)
HUMIDITY....... 100%
BAROMETER...... 1001 hPa (29.56 in Hg)


ICAO-Code: